Time;durP1;ratioP1;P1;durP2;ratioP2;P2;SDS_P1;SDS_P2;PMS_P1;PMS_P2;Temp;Humidity;BMP_temperature;BMP_pressure;BME280_temperature;BME280_humidity;BME280_pressure;Samples;Min_cycle;Max_cycle;Signal;HPM_P1;HPM_P2
2022/07/19 00:00:11;;;;;;;1999.90;999.90;;;;;;;18.02;65.77;99576.56;8403096;28;20040;-79
2022/07/19 00:04:13;;;;;;;1999.90;999.90;;;;;;;17.88;65.56;99573.50;8389242;28;20090;-78
2022/07/19 00:08:14;;;;;;;1999.90;999.90;;;;;;;17.81;66.16;99570.22;8382052;28;20060;-78
2022/07/19 00:12:16;;;;;;;1999.90;999.90;;;;;;;17.69;67.18;99572.34;8367985;28;20133;-78
2022/07/19 00:16:17;;;;;;;1999.90;999.90;;;;;;;17.67;67.43;99564.50;8362244;28;20373;-78
2022/07/19 00:20:21;;;;;;;;;;;;;;;17.59;67.49;99563.00;8370420;28;20334;-78
2022/07/19 00:24:23;;;;;;;1999.90;999.90;;;;;;;17.49;67.44;99562.44;8377391;28;19951;-78
2022/07/19 00:28:24;;;;;;;1999.90;999.90;;;;;;;17.38;68.23;99567.97;8379944;28;20071;-77
2022/07/19 00:32:26;;;;;;;1999.90;999.90;;;;;;;17.35;67.72;99564.59;8373393;28;20139;-77
2022/07/19 00:36:27;;;;;;;1999.90;999.90;;;;;;;17.27;67.24;99566.59;8390596;28;20067;-77
2022/07/19 00:40:29;;;;;;;1999.90;999.90;;;;;;;17.20;67.57;99563.25;8388585;28;20155;-77
2022/07/19 00:44:30;;;;;;;1999.90;999.90;;;;;;;17.14;68.46;99566.06;8400870;28;20066;-77
2022/07/19 00:48:32;;;;;;;1999.90;999.90;;;;;;;17.01;69.63;99560.28;8413773;28;20173;-77
2022/07/19 00:52:35;;;;;;;1999.90;999.90;;;;;;;16.94;70.14;99563.16;8419642;28;20288;-77
2022/07/19 00:56:37;;;;;;;1999.90;999.90;;;;;;;16.85;70.64;99562.47;8437935;28;20332;-77
2022/07/19 01:00:38;;;;;;;1999.90;999.90;;;;;;;16.83;70.46;99566.91;8422817;27;20078;-77
2022/07/19 01:04:40;;;;;;;1999.90;999.90;;;;;;;16.82;71.02;99559.09;8419940;28;20067;-77
2022/07/19 01:08:43;;;;;;;1999.90;999.90;;;;;;;16.78;70.78;99566.19;8440524;28;20051;-77
2022/07/19 01:12:45;;;;;;;1999.90;999.90;;;;;;;16.74;69.99;99568.94;8421717;28;20054;-78
2022/07/19 01:16:46;;;;;;;1999.90;999.90;;;;;;;16.70;70.51;99562.06;8417541;28;20044;-78
2022/07/19 01:20:49;;;;;;;1999.90;999.90;;;;;;;16.63;71.43;99571.78;8427644;28;20047;-78
2022/07/19 01:24:51;;;;;;;1999.90;999.90;;;;;;;16.57;71.50;99564.97;8439187;28;20058;-77
2022/07/19 01:28:52;;;;;;;1999.90;999.90;;;;;;;16.53;72.31;99559.84;8419756;28;20044;-78
2022/07/19 01:32:54;;;;;;;1999.90;999.90;;;;;;;16.44;72.46;99552.19;8407834;28;20466;-78
2022/07/19 01:36:56;;;;;;;1999.90;999.90;;;;;;;16.31;72.68;99551.63;8383249;28;20127;-77
2022/07/19 01:40:58;;;;;;;1999.90;999.90;;;;;;;16.28;72.89;99549.09;8391006;28;20322;-78
2022/07/19 01:45:00;;;;;;;1999.90;999.90;;;;;;;16.21;72.99;99545.78;8410033;28;20067;-78
2022/07/19 01:49:02;;;;;;;1999.90;999.90;;;;;;;16.20;72.88;99537.97;8405643;28;20059;-78
2022/07/19 01:53:03;;;;;;;1999.90;999.90;;;;;;;16.17;73.45;99538.03;8395473;28;20037;-77
2022/07/19 01:57:04;;;;;;;1999.90;999.90;;;;;;;16.11;73.44;99531.19;8397981;28;20807;-78
2022/07/19 02:01:06;;;;;;;1999.90;999.90;;;;;;;16.02;73.69;99536.66;8397332;28;20086;-77
2022/07/19 02:05:08;;;;;;;1999.90;999.90;;;;;;;16.01;73.71;99534.94;8409435;28;20604;-78
2022/07/19 02:09:11;;;;;;;1999.90;999.90;;;;;;;15.92;73.66;99532.53;8411758;28;20109;-78
2022/07/19 02:13:13;;;;;;;1999.90;999.90;;;;;;;15.86;74.32;99527.44;8413708;28;20138;-78
2022/07/19 02:17:14;;;;;;;1999.90;999.90;;;;;;;15.82;74.70;99531.03;8410649;28;20135;-78
2022/07/19 02:21:17;;;;;;;1999.90;999.90;;;;;;;15.71;75.37;99526.91;8412812;28;20051;-78
2022/07/19 02:25:19;;;;;;;;;;;;;;;15.58;75.45;99522.78;8395580;28;20320;-77
2022/07/19 02:29:20;;;;;;;1999.90;999.90;;;;;;;15.55;75.68;99522.88;8415118;28;20007;-78
2022/07/19 02:33:21;;;;;;;1999.90;999.90;;;;;;;15.49;75.79;99515.16;8422143;28;20639;-78
2022/07/19 02:37:23;;;;;;;1999.90;999.90;;;;;;;15.38;76.14;99525.00;8462030;28;20123;-78
2022/07/19 02:41:24;;;;;;;1999.90;999.90;;;;;;;15.37;76.16;99523.28;8437037;28;20087;-78
2022/07/19 02:45:26;;;;;;;1999.90;999.90;;;;;;;15.32;76.08;99528.63;8435819;28;20125;-78
2022/07/19 02:49:28;;;;;;;1999.90;999.90;;;;;;;15.30;76.39;99525.19;8428170;28;20040;-78
2022/07/19 02:53:30;;;;;;;1999.90;999.90;;;;;;;15.28;76.76;99526.97;8443254;28;20044;-78
2022/07/19 02:57:31;;;;;;;1999.90;999.90;;;;;;;15.22;76.34;99531.44;8422730;28;20606;-78
2022/07/19 03:01:33;;;;;;;1999.90;999.90;;;;;;;15.14;77.14;99525.53;8450864;28;20051;-78
2022/07/19 03:05:35;;;;;;;1999.90;999.90;;;;;;;15.04;77.37;99524.84;8443342;28;20055;-78
2022/07/19 03:09:36;;;;;;;1999.90;999.90;;;;;;;14.97;77.15;99525.88;8450621;28;20051;-78
2022/07/19 03:13:38;;;;;;;1999.90;999.90;;;;;;;14.96;77.08;99529.38;8449244;28;20063;-78
2022/07/19 03:17:39;;;;;;;1999.90;999.90;;;;;;;14.96;77.39;99527.63;8401617;28;20478;-78
2022/07/19 03:21:41;;;;;;;1999.90;999.90;;;;;;;14.87;77.29;99524.31;8397238;28;20127;-78
2022/07/19 03:25:42;;;;;;;1999.90;999.90;;;;;;;14.84;77.63;99529.59;8412192;28;20059;-78
2022/07/19 03:29:44;;;;;;;1999.90;999.90;;;;;;;14.80;77.60;99534.91;8413842;28;20304;-78
2022/07/19 03:33:45;;;;;;;1999.90;999.90;;;;;;;14.73;77.99;99527.22;8409463;28;20048;-78
2022/07/19 03:37:47;;;;;;;1999.90;999.90;;;;;;;14.72;78.25;99530.69;8413876;28;20044;-78
2022/07/19 03:41:48;;;;;;;1999.90;999.90;;;;;;;14.70;77.80;99535.09;8388496;28;20028;-78
2022/07/19 03:45:50;;;;;;;1999.90;999.90;;;;;;;14.67;77.64;99532.53;8388315;28;20076;-78
2022/07/19 03:49:51;;;;;;;1999.90;999.90;;;;;;;14.61;77.67;99532.66;8403931;28;20047;-76
2022/07/19 03:53:53;;;;;;;1999.90;999.90;;;;;;;14.57;77.92;99534.47;8385716;28;20040;-76
2022/07/19 03:57:54;;;;;;;1999.90;999.90;;;;;;;14.54;77.95;99525.81;8389511;28;20072;-77
2022/07/19 04:01:56;;;;;;;1999.90;999.90;;;;;;;14.51;77.96;99527.59;8383034;28;20131;-77
2022/07/19 04:05:58;;;;;;;1999.90;999.90;;;;;;;14.47;78.39;99527.69;8399769;28;20044;-77
2022/07/19 04:09:59;;;;;;;1999.90;999.90;;;;;;;14.44;78.48;99532.97;8389171;28;20059;-77
2022/07/19 04:14:01;;;;;;;1999.90;999.90;;;;;;;14.38;79.01;99531.31;8405347;28;20930;-77
2022/07/19 04:18:03;;;;;;;1999.90;999.90;;;;;;;14.45;79.09;99529.47;8373753;28;20076;-77
2022/07/19 04:22:05;;;;;;;1999.90;999.90;;;;;;;14.50;78.82;99531.09;8404048;28;20123;-76
2022/07/19 04:26:07;;;;;;;1999.90;999.90;;;;;;;14.58;78.88;99524.88;8403807;28;20122;-77
2022/07/19 04:30:09;;;;;;;1999.90;999.90;;;;;;;14.54;78.60;99531.91;8409115;28;20052;-77
2022/07/19 04:34:10;;;;;;;1999.90;999.90;;;;;;;14.65;78.55;99529.09;8421861;28;20040;-77
2022/07/19 04:38:12;;;;;;;1999.90;999.90;;;;;;;14.72;78.46;99531.59;8444248;28;20618;-78
2022/07/19 04:42:14;;;;;;;1999.90;999.90;;;;;;;14.76;78.19;99528.00;8426195;28;20398;-79
2022/07/19 04:46:16;;;;;;;1999.90;999.90;;;;;;;14.88;77.98;99526.91;8451765;28;20055;-79
2022/07/19 04:50:17;;;;;;;1999.90;999.90;;;;;;;15.03;77.66;99531.81;8447414;28;20142;-79
2022/07/19 04:54:19;;;;;;;1999.90;999.90;;;;;;;15.18;77.16;99532.41;8425123;28;20431;-79
2022/07/19 04:58:21;;;;;;;1999.90;999.90;;;;;;;15.33;76.94;99526.84;8442381;28;20112;-78
2022/07/19 05:02:22;;;;;;;1999.90;999.90;;;;;;;15.45;76.46;99529.22;8455134;28;20324;-78
2022/07/19 05:06:24;;;;;;;1999.90;999.90;;;;;;;15.54;76.09;99536.00;8432351;28;20039;-79
2022/07/19 05:10:26;;;;;;;1999.90;999.90;;;;;;;15.76;75.56;99531.16;8417562;28;20039;-79
2022/07/19 05:14:28;;;;;;;1999.90;999.90;;;;;;;16.02;75.62;99534.91;8421480;28;20050;-79
2022/07/19 05:18:29;;;;;;;1999.90;999.90;;;;;;;16.24;74.38;99540.47;8442511;28;20067;-79
2022/07/19 05:22:31;;;;;;;1999.90;999.90;;;;;;;16.45;74.14;99544.28;8450809;28;20459;-79
2022/07/19 05:26:33;;;;;;;1999.90;999.90;;;;;;;16.73;73.28;99541.84;8436791;28;20063;-79
2022/07/19 05:30:35;;;;;;;1999.90;999.90;;;;;;;17.02;72.21;99543.66;8427838;28;20063;-79
2022/07/19 05:34:36;;;;;;;1999.90;999.90;;;;;;;17.31;71.57;99542.81;8428445;28;20075;-78
2022/07/19 05:38:38;;;;;;;1999.90;999.90;;;;;;;17.58;69.86;99538.50;8439179;28;20315;-78
2022/07/19 05:42:40;;;;;;;;;;;;;;;17.93;69.25;99539.19;8445782;28;20699;-78
2022/07/19 05:46:42;;;;;;;1999.90;999.90;;;;;;;18.31;68.36;99528.31;8433393;28;19935;-78
2022/07/19 05:50:44;;;;;;;1999.90;999.90;;;;;;;18.71;66.57;99526.97;8437469;28;20072;-78
2022/07/19 05:54:46;;;;;;;1999.90;999.90;;;;;;;19.13;65.15;99529.81;8422359;28;20428;-78
2022/07/19 05:58:48;;;;;;;1999.90;999.90;;;;;;;19.76;62.95;99533.59;8421659;28;20139;-78
2022/07/19 06:02:49;;;;;;;1999.90;999.90;;;;;;;20.40;61.53;99525.66;8422366;28;20750;-78
2022/07/19 06:06:51;;;;;;;1999.90;999.90;;;;;;;21.10;59.32;99530.53;8438778;28;20139;-79
2022/07/19 06:10:54;;;;;;;1999.90;999.90;;;;;;;21.68;57.46;99530.50;8428935;28;20081;-80
2022/07/19 06:14:57;;;;;;;1999.90;999.90;;;;;;;22.25;56.40;99533.91;8437858;28;20051;-79
2022/07/19 06:29:55;;;;;;;1999.90;999.90;;;;;;;24.89;47.10;99537.88;10341131;22;20441;-79
2022/07/19 06:33:58;;;;;;;1999.90;999.90;;;;;;;25.59;43.43;99528.19;10217170;23;20482;-79
2022/07/19 06:38:01;;;;;;;1999.90;999.90;;;;;;;26.42;42.42;99533.50;10240983;23;20124;-79
2022/07/19 06:42:13;;;;;;;1999.90;999.90;;;;;;;27.17;39.36;99531.84;10244214;23;20016;-79
2022/07/19 06:46:17;;;;;;;1999.90;999.90;;;;;;;27.74;38.99;99531.31;10245108;22;20510;-79
2022/07/19 06:50:31;;;;;;;1999.90;999.90;;;;;;;28.14;37.27;99536.38;10258495;23;20538;-80
2022/07/19 06:54:48;;;;;;;1999.90;999.90;;;;;;;28.53;37.40;99540.56;10241180;23;20029;-79
2022/07/19 06:58:53;;;;;;;1999.90;999.90;;;;;;;28.74;35.21;99536.28;10240320;23;20079;-78
2022/07/19 07:02:58;;;;;;;1999.90;999.90;;;;;;;28.84;34.57;99539.94;10230861;22;20036;-78
2022/07/19 07:07:02;;;;;;;1999.90;999.90;;;;;;;28.97;34.37;99537.19;10240836;23;20359;-78
2022/07/19 07:11:12;;;;;;;1999.90;999.90;;;;;;;29.12;33.19;99540.50;10217670;23;20051;-79
2022/07/19 07:15:15;;;;;;;1999.90;999.90;;;;;;;29.33;32.26;99543.28;10254103;23;20017;-77
2022/07/19 07:19:17;;;;;;;1999.90;999.90;;;;;;;29.58;31.97;99543.06;10239283;23;20032;-79
2022/07/19 07:23:19;;;;;;;1999.90;999.90;;;;;;;29.80;32.11;99544.81;10255513;23;20029;-77
2022/07/19 07:27:23;;;;;;;1999.90;999.90;;;;;;;30.05;31.69;99533.84;10236971;23;20017;-76
2022/07/19 07:31:25;;;;;;;1999.90;999.90;;;;;;;30.23;31.23;99533.31;10273298;23;20049;-76
2022/07/19 07:35:27;;;;;;;1999.90;999.90;;;;;;;30.46;30.71;99528.69;10228051;23;20087;-77
2022/07/19 07:39:29;;;;;;;1999.90;999.90;;;;;;;30.62;30.24;99519.25;10252127;23;20075;-76
2022/07/19 07:43:30;;;;;;;1999.90;999.90;;;;;;;30.79;29.71;99527.69;10251071;23;20024;-76
2022/07/19 07:47:32;;;;;;;1999.90;999.90;;;;;;;31.02;29.97;99518.47;10222306;23;20502;-76
2022/07/19 07:51:34;;;;;;;1999.90;999.90;;;;;;;31.23;29.27;99518.47;10202179;23;20055;-76
2022/07/19 07:55:46;;;;;;;1999.90;999.90;;;;;;;31.46;28.61;99522.66;10225875;23;20024;-76
2022/07/19 07:59:47;;;;;;;1999.90;999.90;;;;;;;31.72;28.46;99519.47;10202228;23;20025;-76
2022/07/19 08:03:49;;;;;;;1999.90;999.90;;;;;;;31.95;27.96;99512.88;10222983;23;20033;-76
2022/07/19 08:07:51;;;;;;;1999.90;999.90;;;;;;;32.06;26.91;99510.09;10243559;23;20395;-76
2022/07/19 08:11:54;;;;;;;1999.90;999.90;;;;;;;32.32;27.80;99509.56;10226178;23;20020;-76
2022/07/19 08:15:55;;;;;;;1999.90;999.90;;;;;;;32.50;26.79;99499.78;10196840;23;20295;-76
2022/07/19 08:19:58;;;;;;;1999.90;999.90;;;;;;;32.73;26.88;99495.75;10201035;23;20032;-76
2022/07/19 08:23:59;;;;;;;1999.90;999.90;;;;;;;32.96;26.70;99500.81;10241649;23;20025;-77
2022/07/19 08:28:03;;;;;;;1999.90;999.90;;;;;;;33.15;26.11;99489.97;10222866;23;20045;-76
2022/07/19 08:32:04;;;;;;;1999.90;999.90;;;;;;;33.34;26.23;99486.38;10231811;23;20063;-76
2022/07/19 08:36:07;;;;;;;1999.90;999.90;;;;;;;33.58;25.71;99483.16;10200085;23;20103;-76
2022/07/19 08:40:09;;;;;;;1999.90;999.90;;;;;;;33.74;25.13;99482.44;10202938;23;20455;-77
2022/07/19 08:44:12;;;;;;;1999.90;999.90;;;;;;;33.90;24.98;99479.97;10249066;23;20025;-78
2022/07/19 08:48:15;;;;;;;1999.90;999.90;;;;;;;34.10;25.61;99486.03;10226265;23;20032;-77
2022/07/19 08:52:18;;;;;;;1999.90;999.90;;;;;;;34.33;25.89;99489.13;10229731;23;20021;-77
2022/07/19 09:00:40;;;;;;;1999.90;999.90;;;;;;;34.64;24.19;99471.50;10227662;23;20029;-77
2022/07/19 09:04:42;;;;;;;1999.90;999.90;;;;;;;34.74;24.55;99466.84;10247966;23;20522;-78
2022/07/19 09:08:46;;;;;;;1999.90;999.90;;;;;;;34.91;24.07;99467.81;10230464;23;20017;-77
2022/07/19 09:13:00;;;;;;;1999.90;999.90;;;;;;;35.11;24.12;99461.16;10231100;23;20020;-76
2022/07/19 09:17:11;;;;;;;1999.90;999.90;;;;;;;35.19;22.27;99464.91;10226604;23;20017;-77
2022/07/19 09:21:13;;;;;;;1999.90;999.90;;;;;;;35.22;22.26;99454.66;10229112;23;20020;-77
2022/07/19 09:25:32;;;;;;;1999.90;999.90;;;;;;;35.40;23.12;99457.28;10279274;23;20025;-77
2022/07/19 09:29:37;;;;;;;1999.90;999.90;;;;;;;35.37;20.88;99447.66;10228067;23;20024;-77
2022/07/19 09:33:45;;;;;;;1999.90;999.90;;;;;;;35.59;21.11;99448.88;10217425;23;20032;-77
2022/07/19 09:37:46;;;;;;;1999.90;999.90;;;;;;;35.66;20.49;99443.66;10224006;23;20021;-77
2022/07/19 09:41:55;;;;;;;1999.90;999.90;;;;;;;35.62;19.50;99440.44;10203265;23;20265;-79
2022/07/19 09:46:03;;;;;;;1999.90;999.90;;;;;;;35.84;20.90;99447.09;10220318;23;20025;-79
2022/07/19 09:50:27;;;;;;;1999.90;999.90;;;;;;;35.80;20.37;99434.06;10227793;23;20017;-79
2022/07/19 09:54:31;;;;;;;1999.90;999.90;;;;;;;35.85;20.77;99421.75;10227367;23;20036;-79
2022/07/19 09:58:33;;;;;;;1999.90;999.90;;;;;;;36.05;20.96;99438.47;10242491;23;20111;-79
2022/07/19 10:02:49;;;;;;;1999.90;999.90;;;;;;;36.09;20.78;99426.34;10223366;23;20056;-79
2022/07/19 10:06:54;;;;;;;1999.90;999.90;;;;;;;36.15;20.40;99425.66;10202771;23;20017;-79
2022/07/19 10:11:18;;;;;;;1999.90;999.90;;;;;;;36.12;19.42;99415.19;10245286;23;20050;-79
2022/07/19 10:15:47;;;;;;;1999.90;999.90;;;;;;;36.32;19.56;99421.09;10223838;23;20050;-79
2022/07/19 10:20:14;;;;;;;1999.90;999.90;;;;;;;36.41;19.47;99401.13;10227594;23;20021;-79
2022/07/19 10:24:45;;;;;;;1999.90;999.90;;;;;;;36.57;19.09;99401.09;10228309;23;20032;-79
2022/07/19 10:29:07;;;;;;;1999.90;999.90;;;;;;;36.58;19.06;99396.53;10227103;23;20021;-79
2022/07/19 10:33:52;;;;;;;1999.90;999.90;;;;;;;36.54;18.08;99379.81;10224332;23;20095;-79
2022/07/19 10:38:28;;;;;;;1999.90;999.90;;;;;;;36.61;18.50;99374.53;10227172;23;20036;-79
2022/07/19 10:43:18;;;;;;;1999.90;999.90;;;;;;;36.73;18.56;99370.44;10226725;23;20024;-79
2022/07/19 10:47:31;;;;;;;1999.90;999.90;;;;;;;36.83;17.71;99375.69;10219220;23;20029;-77
2022/07/19 10:51:34;;;;;;;1999.90;999.90;;;;;;;36.71;17.79;99368.94;10217678;23;20025;-76
2022/07/19 10:55:36;;;;;;;1999.90;999.90;;;;;;;36.62;17.66;99358.09;10207353;23;20032;-75
2022/07/19 10:59:42;;;;;;;1999.90;999.90;;;;;;;36.76;18.19;99350.28;10234740;23;20017;-77
2022/07/19 11:03:43;;;;;;;1999.90;999.90;;;;;;;37.06;18.53;99352.22;10220095;23;20132;-76
2022/07/19 11:07:52;;;;;;;1999.90;999.90;;;;;;;37.15;17.41;99340.28;10219240;23;20029;-77
2022/07/19 11:11:54;;;;;;;1999.90;999.90;;;;;;;37.14;17.74;99349.44;10195392;23;20024;-76
2022/07/19 11:15:57;;;;;;;1999.90;999.90;;;;;;;37.19;17.84;99332.69;10192264;23;20029;-77
2022/07/19 11:20:06;;;;;;;1999.90;999.90;;;;;;;37.27;16.60;99323.69;10194489;23;20024;-77
2022/07/19 11:24:08;;;;;;;1999.90;999.90;;;;;;;37.35;17.42;99318.22;10192748;23;20405;-76
2022/07/19 11:28:24;;;;;;;1999.90;999.90;;;;;;;37.45;17.29;99307.97;10191721;23;20056;-77
2022/07/19 11:32:26;;;;;;;1999.90;999.90;;;;;;;37.55;16.62;99319.41;10138672;23;20033;-76
2022/07/19 11:36:28;;;;;;;1999.90;999.90;;;;;;;37.59;16.69;99322.59;10143758;23;20018;-76
2022/07/19 11:40:34;;;;;;;1999.90;999.90;;;;;;;37.51;16.75;99312.66;10170893;23;20031;-77
2022/07/19 11:44:37;;;;;;;1999.90;999.90;;;;;;;37.55;16.55;99300.44;10162760;23;20436;-77
2022/07/19 11:48:38;;;;;;;1999.90;999.90;;;;;;;37.70;17.20;99300.47;10205193;23;20481;-78
2022/07/19 11:52:52;;;;;;;1999.90;999.90;;;;;;;37.75;15.54;99295.41;10238608;23;20505;-78
2022/07/19 11:56:53;;;;;;;1999.90;999.90;;;;;;;37.79;16.99;99281.28;10247876;23;20273;-78
2022/07/19 12:01:05;;;;;;;1999.90;999.90;;;;;;;37.82;15.86;99285.50;10215615;23;20025;-78
2022/07/19 12:05:13;;;;;;;1999.90;999.90;;;;;;;37.92;16.21;99285.25;10176935;23;20021;-78
2022/07/19 12:09:18;;;;;;;1999.90;999.90;;;;;;;37.92;15.20;99269.81;10252438;23;20372;-78
2022/07/19 12:13:31;;;;;;;1999.90;999.90;;;;;;;38.13;16.56;99265.53;10227618;23;20037;-78
2022/07/19 12:17:33;;;;;;;1999.90;999.90;;;;;;;38.23;16.22;99260.66;10198951;23;20025;-78
2022/07/19 12:21:36;;;;;;;1999.90;999.90;;;;;;;38.33;16.37;99256.66;10228828;23;20028;-78
2022/07/19 12:25:38;;;;;;;1999.90;999.90;;;;;;;38.23;15.25;99241.69;10201944;23;20021;-78
2022/07/19 12:29:39;;;;;;;1999.90;999.90;;;;;;;38.31;15.09;99244.31;10227631;23;20021;-77
2022/07/19 12:33:41;;;;;;;1999.90;999.90;;;;;;;38.49;15.49;99239.34;10251441;23;20037;-78
2022/07/19 12:37:47;;;;;;;1999.90;999.90;;;;;;;38.40;14.25;99237.75;10227737;23;20045;-77
2022/07/19 12:42:01;;;;;;;1999.90;999.90;;;;;;;38.43;14.65;99236.53;10202807;23;20017;-77
2022/07/19 12:46:03;;;;;;;1999.90;999.90;;;;;;;38.38;15.15;99223.53;10172564;23;20301;-77
2022/07/19 12:50:06;;;;;;;1999.90;999.90;;;;;;;38.48;15.22;99226.78;10251046;23;20017;-77
2022/07/19 12:54:13;;;;;;;1999.90;999.90;;;;;;;38.48;14.75;99209.66;10200481;23;20021;-77
2022/07/19 12:59:38;;;;;;;1999.90;999.90;;;;;;;38.56;14.37;99212.25;10201288;23;20063;-78
2022/07/19 13:02:38;;;;;;;1999.90;999.90;;;;;;;38.59;14.46;99218.13;10251110;23;20043;-78
2022/07/19 13:06:40;;;;;;;1999.90;999.90;;;;;;;38.66;15.16;99221.81;10228380;23;20079;-78
2022/07/19 13:10:41;;;;;;;1999.90;999.90;;;;;;;38.61;13.60;99205.25;10176125;23;20024;-77
2022/07/19 13:14:43;;;;;;;1999.90;999.90;;;;;;;38.73;14.10;99208.31;10202220;23;20535;-77
2022/07/19 13:18:44;;;;;;;1999.90;999.90;;;;;;;38.81;13.49;99205.50;10197138;23;20417;-77
2022/07/19 13:22:47;;;;;;;1999.90;999.90;;;;;;;38.92;14.07;99199.53;10200716;23;20332;-78
2022/07/19 13:26:48;;;;;;;1999.90;999.90;;;;;;;38.96;13.66;99189.13;10228031;23;20021;-78
2022/07/19 13:30:50;;;;;;;1999.90;999.90;;;;;;;38.98;13.71;99182.47;10220334;23;20052;-78
2022/07/19 13:34:52;;;;;;;1999.90;999.90;;;;;;;39.05;13.66;99187.97;10200699;23;20032;-78
2022/07/19 13:38:54;;;;;;;1999.90;999.90;;;;;;;39.04;13.58;99175.41;10199483;23;20384;-77
2022/07/19 13:42:56;;;;;;;1999.90;999.90;;;;;;;38.92;13.21;99185.13;10222933;23;20064;-78
2022/07/19 13:46:58;;;;;;;1999.90;999.90;;;;;;;38.96;13.88;99179.13;10195627;23;20025;-77
2022/07/19 13:51:00;;;;;;;1999.90;999.90;;;;;;;38.95;13.54;99174.69;10200428;23;20021;-77
2022/07/19 13:55:01;;;;;;;1999.90;999.90;;;;;;;38.98;13.01;99163.47;10198657;23;20036;-78
2022/07/19 13:59:03;;;;;;;1999.90;999.90;;;;;;;39.06;13.28;99156.22;10197175;23;20021;-76
2022/07/19 14:03:04;;;;;;;1999.90;999.90;;;;;;;39.07;13.72;99152.47;10166796;23;20843;-76
2022/07/19 14:07:06;;;;;;;1999.90;999.90;;;;;;;39.08;13.99;99156.88;10211766;23;20032;-77
2022/07/19 14:11:08;;;;;;;1999.90;999.90;;;;;;;39.04;14.05;99142.00;10221138;23;20025;-76
2022/07/19 14:15:09;;;;;;;1999.90;999.90;;;;;;;39.05;13.40;99141.78;10167455;23;20092;-76
2022/07/19 14:19:12;;;;;;;1999.90;999.90;;;;;;;39.07;13.37;99147.03;10219807;23;20025;-76
2022/07/19 14:23:14;;;;;;;1999.90;999.90;;;;;;;38.97;13.62;99141.94;10219204;23;20380;-77
2022/07/19 14:27:16;;;;;;;1999.90;999.90;;;;;;;38.98;13.99;99138.19;10219819;23;20017;-77
2022/07/19 14:31:17;;;;;;;1999.90;999.90;;;;;;;39.00;13.75;99122.53;10214581;23;20095;-76
2022/07/19 14:35:19;;;;;;;1999.90;999.90;;;;;;;38.94;13.93;99129.56;10195935;23;20025;-75
2022/07/19 14:39:21;;;;;;;1999.90;999.90;;;;;;;38.96;14.35;99108.50;10220016;23;20052;-76
2022/07/19 14:43:22;;;;;;;1999.90;999.90;;;;;;;39.02;13.69;99123.19;10224288;23;20052;-76
2022/07/19 14:47:24;;;;;;;1999.90;999.90;;;;;;;39.02;13.35;99114.19;10224050;23;20045;-77
2022/07/19 14:51:26;;;;;;;1999.90;999.90;;;;;;;38.96;13.68;99108.50;10223682;23;20025;-76
2022/07/19 14:55:27;;;;;;;1999.90;999.90;;;;;;;38.97;14.06;99115.63;10223813;23;20028;-76
2022/07/19 14:59:29;;;;;;;1999.90;999.90;;;;;;;39.02;13.73;99100.59;10224825;23;20532;-76
2022/07/19 15:03:31;;;;;;;1999.90;999.90;;;;;;;39.02;13.89;99106.88;10194171;23;20021;-77
2022/07/19 15:07:33;;;;;;;1999.90;999.90;;;;;;;39.03;14.05;99099.56;10198373;23;20674;-76
2022/07/19 15:11:35;;;;;;;1999.90;999.90;;;;;;;38.99;13.71;99099.13;10198665;23;20411;-75
2022/07/19 15:15:36;;;;;;;1999.90;999.90;;;;;;;38.98;13.50;99090.16;10190970;23;20524;-75
2022/07/19 15:19:38;;;;;;;1999.90;999.90;;;;;;;39.00;13.53;99087.22;10171788;23;20017;-75
2022/07/19 15:23:41;;;;;;;1999.90;999.90;;;;;;;38.98;13.08;99097.44;10221474;23;20024;-75
2022/07/19 15:27:42;;;;;;;1999.90;999.90;;;;;;;39.06;12.60;99085.59;10215487;23;20878;-75
2022/07/19 15:31:45;;;;;;;1999.90;999.90;;;;;;;39.11;12.93;99085.88;10215041;23;20033;-75
2022/07/19 15:35:47;;;;;;;1999.90;999.90;;;;;;;39.16;13.39;99081.53;10221760;23;20052;-75
2022/07/19 15:39:48;;;;;;;1999.90;999.90;;;;;;;38.98;11.74;99084.72;10195676;23;20021;-75
2022/07/19 15:43:50;;;;;;;1999.90;999.90;;;;;;;39.00;12.78;99073.66;10244816;23;20021;-76
2022/07/19 15:47:52;;;;;;;1999.90;999.90;;;;;;;39.12;13.05;99073.97;10189381;23;20040;-75
2022/07/19 15:51:54;;;;;;;1999.90;999.90;;;;;;;39.18;11.26;99065.03;10194151;23;20020;-76
2022/07/19 15:55:56;;;;;;;1999.90;999.90;;;;;;;39.06;10.83;99072.84;10244583;23;20021;-76
2022/07/19 15:59:57;;;;;;;1999.90;999.90;;;;;;;39.05;11.58;99062.19;10194089;23;20032;-75
2022/07/19 16:03:59;;;;;;;1999.90;999.90;;;;;;;39.15;12.05;99052.69;10189276;23;20411;-75
2022/07/19 16:08:00;;;;;;;1999.90;999.90;;;;;;;39.19;12.27;99053.13;10221907;23;20017;-75
2022/07/19 16:12:02;;;;;;;1999.90;999.90;;;;;;;39.24;12.12;99047.94;10222246;23;20684;-75
2022/07/19 16:16:05;;;;;;;1999.90;999.90;;;;;;;39.08;11.86;99053.66;10240352;23;20028;-75
2022/07/19 16:20:07;;;;;;;1999.90;999.90;;;;;;;39.03;12.31;99046.09;10192418;23;20086;-75
2022/07/19 16:24:09;;;;;;;1999.90;999.90;;;;;;;39.13;12.31;99037.59;10238090;23;20443;-76
2022/07/19 16:28:10;;;;;;;1999.90;999.90;;;;;;;39.08;12.45;99024.63;10221287;23;20111;-75
2022/07/19 16:32:13;;;;;;;1999.90;999.90;;;;;;;38.98;12.73;99018.69;10170120;23;20168;-76
2022/07/19 16:36:14;;;;;;;1999.90;999.90;;;;;;;38.76;13.06;99011.63;10219632;23;20642;-76
2022/07/19 16:40:16;;;;;;;1999.90;999.90;;;;;;;38.31;13.25;99011.84;10195704;23;20284;-75
2022/07/19 16:44:21;;;;;;;1999.90;999.90;;;;;;;37.77;13.84;98997.88;10194178;23;20319;-75
2022/07/19 16:48:22;;;;;;;1999.90;999.90;;;;;;;37.33;13.96;99001.44;10239477;23;20033;-76
2022/07/19 16:52:23;;;;;;;1999.90;999.90;;;;;;;36.97;13.98;98993.19;10190695;23;20052;-75
2022/07/19 16:56:25;;;;;;;1999.90;999.90;;;;;;;36.70;14.52;98988.38;10193229;23;20021;-75
2022/07/19 17:00:27;;;;;;;1999.90;999.90;;;;;;;36.39;14.45;98983.91;10164648;23;20723;-75
2022/07/19 17:04:28;;;;;;;1999.90;999.90;;;;;;;36.18;14.26;98979.13;10220824;23;20021;-75
2022/07/19 17:08:30;;;;;;;1999.90;999.90;;;;;;;35.93;15.15;98986.59;10193136;23;20025;-75
2022/07/19 17:12:32;;;;;;;1999.90;999.90;;;;;;;35.72;14.74;98972.81;10171318;23;20020;-77
2022/07/19 17:16:34;;;;;;;1999.90;999.90;;;;;;;35.59;15.09;98983.38;10228433;23;20029;-77
2022/07/19 17:20:36;;;;;;;1999.90;999.90;;;;;;;35.41;15.30;98983.63;10239703;23;20025;-77
2022/07/19 17:24:37;;;;;;;1999.90;999.90;;;;;;;35.25;15.25;98976.41;10223645;23;20032;-77
2022/07/19 17:28:46;;;;;;;1999.90;999.90;;;;;;;35.08;15.87;98981.00;10172380;23;20112;-77
2022/07/19 17:32:49;;;;;;;1999.90;999.90;;;;;;;34.97;15.76;98980.53;10192951;23;20051;-77
2022/07/19 17:36:51;;;;;;;1999.90;999.90;;;;;;;34.87;15.69;98969.94;10223772;23;20056;-78
2022/07/19 17:40:53;;;;;;;1999.90;999.90;;;;;;;34.66;17.71;98975.00;10221605;23;20060;-78
2022/07/19 17:44:55;;;;;;;1999.90;999.90;;;;;;;34.38;19.56;98979.91;10223385;23;20024;-76
2022/07/19 17:48:59;;;;;;;1999.90;999.90;;;;;;;34.18;22.13;98980.19;10190610;23;20486;-76
2022/07/19 17:53:00;;;;;;;1999.90;999.90;;;;;;;33.72;25.53;98980.75;10220874;23;20040;-77
2022/07/19 17:57:03;;;;;;;1999.90;999.90;;;;;;;33.25;27.56;98979.38;10196842;23;20657;-76
2022/07/19 18:01:05;;;;;;;1999.90;999.90;;;;;;;32.82;30.59;98982.16;10217337;23;20021;-76
2022/07/19 18:05:07;;;;;;;1999.90;999.90;;;;;;;32.37;33.37;98981.31;10245166;23;20025;-75
2022/07/19 18:09:10;;;;;;;1999.90;999.90;;;;;;;32.15;27.33;98984.44;10237635;23;20075;-75